Time;durP1;ratioP1;P1;durP2;ratioP2;P2;SDS_P1;SDS_P2;PMS_P1;PMS_P2;Temp;Humidity;BMP_temperature;BMP_pressure;BME280_temperature;BME280_humidity;BME280_pressure;Samples;Min_cycle;Max_cycle;Signal;HPM_P1;HPM_P2
2022/03/23 00:01:09;;;;;;;;;;;;;;;20.81;26.69;102403.91;104386;1310;61243;-84
2022/03/23 00:03:37;;;;;;;;;;;;;;;20.80;26.76;102398.92;104452;1310;73969;-84
2022/03/23 00:06:06;;;;;;;;;;;;;;;20.80;26.85;102399.44;104420;1309;75812;-84
2022/03/23 00:08:33;;;;;;;;;;;;;;;20.80;26.68;102399.46;104476;1309;61164;-84
2022/03/23 00:11:03;;;;;;;;;;;;;;;20.80;26.81;102398.75;104426;1310;61304;-85
2022/03/23 00:13:30;;;;;;;;;;;;;;;20.80;26.84;102398.60;104446;1310;73782;-85
2022/03/23 00:15:57;;;;;;;;;;;;;;;20.79;26.68;102398.09;104454;1309;75599;-84
2022/03/23 00:18:23;;;;;;;;;;;;;;;20.79;26.73;102397.73;104439;1310;61238;-85
2022/03/23 00:20:49;;;;;;;;;;;;;;;20.79;26.78;102399.69;104458;1310;61268;-84
2022/03/23 00:23:15;;;;;;;;;;;;;;;20.79;26.81;102398.26;104416;1310;61393;-84
2022/03/23 00:25:41;;;;;;;;;;;;;;;20.79;26.76;102395.77;104413;1310;61369;-84
2022/03/23 00:28:07;;;;;;;;;;;;;;;20.78;26.99;102393.48;104445;1310;61949;-84
2022/03/23 00:30:34;;;;;;;;;;;;;;;20.78;26.65;102389.17;104443;1310;61141;-85
2022/03/23 00:33:02;;;;;;;;;;;;;;;20.78;26.72;102391.69;104418;1310;61396;-85
2022/03/23 00:35:31;;;;;;;;;;;;;;;20.77;26.84;102392.07;104474;1309;61165;-84
2022/03/23 00:37:58;;;;;;;;;;;;;;;20.78;26.86;102394.20;104436;1310;61180;-84
2022/03/23 00:40:25;;;;;;;;;;;;;;;20.77;26.77;102392.42;104436;1311;62242;-85
2022/03/23 00:42:52;;;;;;;;;;;;;;;20.77;27.00;102392.62;104441;1311;73093;-85
2022/03/23 00:45:18;;;;;;;;;;;;;;;20.76;26.78;102388.88;104452;1310;73771;-84
2022/03/23 00:47:46;;;;;;;;;;;;;;;20.76;26.91;102386.73;104323;1313;61299;-84
2022/03/23 00:50:12;;;;;;;;;;;;;;;20.76;26.68;102390.34;104243;1313;61319;-85
2022/03/23 00:52:38;;;;;;;;;;;;;;;20.76;26.84;102391.21;104692;1313;59295;-85
2022/03/23 00:55:08;;;;;;;;;;;;;;;20.76;26.93;102387.45;105031;1313;59087;-85
2022/03/23 00:57:38;;;;;;;;;;;;;;;20.77;26.98;102387.98;104958;1313;61302;-86
2022/03/23 01:00:12;;;;;;;;;;;;;;;20.77;26.99;102385.09;105000;1313;62058;-85
2022/03/23 01:02:39;;;;;;;;;;;;;;;20.79;27.06;102384.49;104983;1313;72799;-85
2022/03/23 01:05:04;;;;;;;;;;;;;;;20.79;26.85;102383.05;104959;1313;60061;-85
2022/03/23 01:07:31;;;;;;;;;;;;;;;20.80;27.09;102383.17;104955;1313;59096;-85
2022/03/23 01:09:56;;;;;;;;;;;;;;;20.81;27.12;102382.77;104926;1313;59295;-85
2022/03/23 01:12:22;;;;;;;;;;;;;;;20.83;26.99;102381.96;104773;1313;59190;-85
2022/03/23 01:14:49;;;;;;;;;;;;;;;20.84;26.82;102380.31;105031;1313;58918;-85
2022/03/23 01:17:16;;;;;;;;;;;;;;;20.84;26.98;102379.40;104505;1313;61330;-85
2022/03/23 01:19:43;;;;;;;;;;;;;;;20.85;27.08;102378.65;105049;1309;61279;-85
2022/03/23 01:22:09;;;;;;;;;;;;;;;20.85;26.90;102378.81;105107;1310;61845;-85
2022/03/23 01:24:35;;;;;;;;;;;;;;;20.86;27.01;102370.58;105165;1309;61146;-85
2022/03/23 01:27:02;;;;;;;;;;;;;;;20.86;26.98;102368.60;105135;1309;60110;-85
2022/03/23 01:29:29;;;;;;;;;;;;;;;20.86;26.91;102369.84;105149;1310;61350;-85
2022/03/23 01:31:55;;;;;;;;;;;;;;;20.87;26.99;102371.41;105051;1310;59302;-85
2022/03/23 01:34:21;;;;;;;;;;;;;;;20.87;26.92;102374.27;105052;1310;61398;-85
2022/03/23 01:36:48;;;;;;;;;;;;;;;20.87;26.82;102373.38;105188;1309;61267;-85
2022/03/23 01:39:14;;;;;;;;;;;;;;;20.87;26.84;102374.79;104645;1311;61312;-85
2022/03/23 01:41:42;;;;;;;;;;;;;;;20.88;26.75;102378.36;104510;1310;59369;-85
2022/03/23 01:44:17;;;;;;;;;;;;;;;20.87;26.93;102378.90;104468;1311;74509;-85
2022/03/23 01:47:07;;;;;;;;;;;;;;;20.87;26.96;102378.75;104526;1310;61161;-85
2022/03/23 01:49:34;;;;;;;;;;;;;;;20.86;26.78;102381.66;104520;1309;61026;-85
2022/03/23 01:52:00;;;;;;;;;;;;;;;20.84;26.74;102381.89;104507;1309;72639;-85
2022/03/23 01:54:26;;;;;;;;;;;;;;;20.84;26.71;102377.29;104524;1309;61166;-85
2022/03/23 01:56:53;;;;;;;;;;;;;;;20.82;26.71;102378.59;104537;1310;61378;-85
2022/03/23 01:59:19;;;;;;;;;;;;;;;20.81;26.87;102379.02;104514;1310;61304;-85
2022/03/23 02:01:44;;;;;;;;;;;;;;;20.79;26.58;102374.98;104485;1310;61289;-85
2022/03/23 02:04:11;;;;;;;;;;;;;;;20.78;26.67;102377.89;104477;1310;61256;-85
2022/03/23 02:06:37;;;;;;;;;;;;;;;20.78;26.65;102378.61;104468;1310;61288;-85
2022/03/23 02:09:05;;;;;;;;;;;;;;;20.76;26.72;102377.78;104461;1310;59368;-85
2022/03/23 02:11:37;;;;;;;;;;;;;;;20.76;26.82;102376.20;104470;1310;61424;-85
2022/03/23 02:14:03;;;;;;;;;;;;;;;20.75;26.72;102371.93;104491;1310;73651;-85
2022/03/23 02:16:28;;;;;;;;;;;;;;;20.74;26.67;102373.77;104459;1311;60217;-84
2022/03/23 02:19:05;;;;;;;;;;;;;;;20.74;26.67;102369.69;104492;1310;61442;-84
2022/03/23 02:21:30;;;;;;;;;;;;;;;20.74;26.70;102366.46;104395;1311;72877;-87
2022/03/23 02:23:57;;;;;;;;;;;;;;;20.73;26.83;102367.40;104438;1309;75745;-87
2022/03/23 02:26:23;;;;;;;;;;;;;;;20.72;26.68;102369.59;104456;1310;61281;-87
2022/03/23 02:28:50;;;;;;;;;;;;;;;20.72;26.64;102368.15;104455;1310;61277;-87
2022/03/23 02:31:15;;;;;;;;;;;;;;;20.71;26.78;102364.42;104443;1310;61384;-87
2022/03/23 02:33:42;;;;;;;;;;;;;;;20.71;26.66;102361.58;104363;1310;61297;-86
2022/03/23 02:36:08;;;;;;;;;;;;;;;20.70;26.75;102361.58;104512;1309;62107;-85
2022/03/23 02:38:37;;;;;;;;;;;;;;;20.70;26.73;102365.20;104472;1310;61291;-85
2022/03/23 02:41:04;;;;;;;;;;;;;;;20.69;26.62;102363.44;104472;1309;72886;-85
2022/03/23 02:43:32;;;;;;;;;;;;;;;20.69;26.84;102361.66;104451;1310;61275;-86
2022/03/23 02:45:58;;;;;;;;;;;;;;;20.68;26.75;102358.64;104487;1310;61185;-87
2022/03/23 02:48:25;;;;;;;;;;;;;;;20.68;26.62;102357.92;104466;1311;61754;-86
2022/03/23 02:50:50;;;;;;;;;;;;;;;20.68;26.86;102356.50;104522;1309;61439;-85
2022/03/23 03:01:54;;;;;;;;;;;;;;;20.67;26.80;102353.66;104471;1309;72729;-85
2022/03/23 03:04:23;;;;;;;;;;;;;;;20.66;26.76;102354.05;104445;1310;74591;-84
2022/03/23 03:06:50;;;;;;;;;;;;;;;20.66;26.67;102351.76;104484;1310;61309;-85
2022/03/23 03:09:16;;;;;;;;;;;;;;;20.65;26.68;102358.38;104420;1311;61207;-85
2022/03/23 03:11:43;;;;;;;;;;;;;;;20.65;26.77;102358.75;104439;1310;61272;-85
2022/03/23 03:14:11;;;;;;;;;;;;;;;20.65;26.62;102360.20;104401;1312;74817;-85
2022/03/23 03:16:36;;;;;;;;;;;;;;;20.65;26.74;102359.10;104452;1309;61367;-85
2022/03/23 03:19:10;;;;;;;;;;;;;;;20.64;26.69;102357.54;104449;1310;61426;-87
2022/03/23 03:21:38;;;;;;;;;;;;;;;20.64;26.69;102355.75;104305;1310;72764;-85
2022/03/23 03:24:05;;;;;;;;;;;;;;;20.64;26.72;102355.58;104442;1310;74574;-85
2022/03/23 03:26:31;;;;;;;;;;;;;;;20.64;26.79;102353.98;104429;1311;61303;-85
2022/03/23 03:28:56;;;;;;;;;;;;;;;20.63;26.60;102352.58;104437;1310;61327;-85
2022/03/23 03:31:22;;;;;;;;;;;;;;;20.63;26.74;102350.62;104420;1310;61285;-85
2022/03/23 03:33:48;;;;;;;;;;;;;;;20.63;26.80;102345.98;104422;1311;61281;-85
2022/03/23 03:36:15;;;;;;;;;;;;;;;20.63;26.71;102345.81;104470;1309;61307;-85
2022/03/23 03:38:41;;;;;;;;;;;;;;;20.62;26.72;102345.13;104462;1311;61298;-85
2022/03/23 03:41:11;;;;;;;;;;;;;;;20.62;26.68;102344.76;104454;1310;73901;-85
2022/03/23 03:43:39;;;;;;;;;;;;;;;20.62;26.86;102344.80;104433;1310;73605;-85
2022/03/23 03:46:10;;;;;;;;;;;;;;;20.62;26.64;102346.75;104436;1311;61162;-85
2022/03/23 03:48:37;;;;;;;;;;;;;;;20.61;26.72;102346.60;104447;1310;61150;-85
2022/03/23 03:51:03;;;;;;;;;;;;;;;20.61;26.78;102349.11;104441;1310;72638;-85
2022/03/23 03:53:29;;;;;;;;;;;;;;;20.60;26.90;102348.05;104439;1310;61300;-84
2022/03/23 03:55:55;;;;;;;;;;;;;;;20.60;26.71;102351.09;104461;1310;61349;-84
2022/03/23 03:58:22;;;;;;;;;;;;;;;20.60;26.71;102348.79;104449;1310;61310;-85
2022/03/23 04:00:48;;;;;;;;;;;;;;;20.60;26.72;102350.21;104422;1310;61268;-85
2022/03/23 04:03:14;;;;;;;;;;;;;;;20.59;26.66;102349.89;104327;1311;61245;-84
2022/03/23 04:05:41;;;;;;;;;;;;;;;20.59;26.78;102348.12;104414;1310;61318;-85
2022/03/23 04:08:08;;;;;;;;;;;;;;;20.58;26.86;102345.64;104411;1310;61245;-85
2022/03/23 04:10:39;;;;;;;;;;;;;;;20.59;26.80;102348.14;104411;1309;61199;-85
2022/03/23 04:13:11;;;;;;;;;;;;;;;20.58;26.69;102347.77;104399;1310;74956;-85
2022/03/23 04:15:38;;;;;;;;;;;;;;;20.58;26.69;102347.62;104443;1310;61175;-85
2022/03/23 04:18:05;;;;;;;;;;;;;;;20.58;26.54;102351.02;104403;1310;61217;-85
2022/03/23 04:20:31;;;;;;;;;;;;;;;20.58;26.76;102350.50;104308;1311;62733;-86
2022/03/23 04:22:59;;;;;;;;;;;;;;;20.58;26.60;102355.14;104467;1309;74725;-84
2022/03/23 04:25:26;;;;;;;;;;;;;;;20.57;26.77;102350.86;104367;1311;61297;-85
2022/03/23 04:27:53;;;;;;;;;;;;;;;20.58;26.74;102353.90;104287;1311;61255;-85
2022/03/23 04:30:23;;;;;;;;;;;;;;;20.57;26.71;102355.52;104350;1311;61212;-85
2022/03/23 04:32:49;;;;;;;;;;;;;;;20.57;26.68;102359.30;104370;1310;75073;-85
2022/03/23 04:35:17;;;;;;;;;;;;;;;20.57;26.73;102359.83;104423;1310;61255;-85
2022/03/23 04:37:43;;;;;;;;;;;;;;;20.57;26.53;102362.68;104386;1311;61294;-85
2022/03/23 04:40:09;;;;;;;;;;;;;;;20.56;26.78;102359.52;104391;1311;61306;-84
2022/03/23 04:42:37;;;;;;;;;;;;;;;20.56;26.64;102360.40;104342;1311;74845;-85
2022/03/23 04:45:05;;;;;;;;;;;;;;;20.56;26.72;102362.55;104450;1309;61295;-84
2022/03/23 04:47:55;;;;;;;;;;;;;;;20.56;26.69;102363.98;104419;1310;61383;-85
2022/03/23 04:50:20;;;;;;;;;;;;;;;20.57;26.65;102366.98;103714;1318;73876;-87
2022/03/23 04:52:47;;;;;;;;;;;;;;;20.57;26.82;102364.14;103765;1317;61498;-87
2022/03/23 04:55:15;;;;;;;;;;;;;;;20.58;26.91;102364.27;103743;1317;61274;-85
2022/03/23 04:57:42;;;;;;;;;;;;;;;20.57;26.89;102362.48;103725;1317;61188;-85
2022/03/23 05:00:10;;;;;;;;;;;;;;;20.58;26.94;102365.87;103674;1317;61257;-85
2022/03/23 05:02:42;;;;;;;;;;;;;;;20.58;26.90;102365.32;103775;1317;74543;-84
2022/03/23 05:05:13;;;;;;;;;;;;;;;20.59;26.90;102365.66;103765;1317;61333;-85
2022/03/23 05:07:57;;;;;;;;;;;;;;;20.59;26.88;102371.55;104019;1317;61189;-85
2022/03/23 05:10:24;;;;;;;;;;;;;;;20.59;26.70;102369.77;103792;1317;72921;-84
2022/03/23 05:12:51;;;;;;;;;;;;;;;20.58;26.67;102369.61;103722;1317;61285;-84
2022/03/23 05:15:19;;;;;;;;;;;;;;;20.58;26.99;102374.10;104022;1317;61098;-84
2022/03/23 05:17:45;;;;;;;;;;;;;;;20.57;26.80;102375.36;103733;1317;61283;-84
2022/03/23 05:20:13;;;;;;;;;;;;;;;20.56;26.83;102378.10;103761;1317;72926;-84
2022/03/23 05:22:39;;;;;;;;;;;;;;;20.56;26.84;102382.26;103740;1317;74761;-84
2022/03/23 05:25:06;;;;;;;;;;;;;;;20.55;26.69;102381.23;103736;1317;61450;-84
2022/03/23 05:27:38;;;;;;;;;;;;;;;20.54;26.80;102380.20;104242;1311;61347;-85
2022/03/23 05:30:04;;;;;;;;;;;;;;;20.52;26.61;102383.85;104267;1309;71783;-84
2022/03/23 05:32:34;;;;;;;;;;;;;;;20.49;26.55;102378.98;104378;1309;75959;-84
2022/03/23 05:35:00;;;;;;;;;;;;;;;20.47;26.38;102383.71;104344;1308;61225;-84
2022/03/23 05:37:26;;;;;;;;;;;;;;;20.45;26.42;102383.78;104234;1309;61340;-84
2022/03/23 05:39:52;;;;;;;;;;;;;;;20.44;26.38;102385.08;104282;1308;61181;-84
2022/03/23 05:42:18;;;;;;;;;;;;;;;20.41;26.34;102385.19;104220;1309;61393;-83
2022/03/23 05:44:45;;;;;;;;;;;;;;;20.39;26.10;102386.58;104263;1308;61257;-83
2022/03/23 05:47:10;;;;;;;;;;;;;;;20.35;26.11;102387.11;104444;1307;59336;-83
2022/03/23 05:49:37;;;;;;;;;;;;;;;20.30;26.00;102388.55;104184;1308;61394;-83
2022/03/23 05:52:02;;;;;;;;;;;;;;;20.24;25.92;102388.80;104150;1309;61257;-81
2022/03/23 05:54:28;;;;;;;;;;;;;;;20.16;25.82;102389.85;104348;1308;61417;-82
2022/03/23 05:56:54;;;;;;;;;;;;;;;20.12;25.74;102387.91;104279;1308;61365;-83
2022/03/23 05:59:19;;;;;;;;;;;;;;;20.07;25.74;102388.98;104345;1308;61486;-86
2022/03/23 06:01:44;;;;;;;;;;;;;;;20.02;25.70;102386.69;104215;1308;60719;-83
2022/03/23 06:04:12;;;;;;;;;;;;;;;20.00;25.56;102389.81;103977;1308;61247;-86
2022/03/23 06:06:37;;;;;;;;;;;;;;;19.93;25.59;102389.20;103625;1309;61335;-82
2022/03/23 06:09:03;;;;;;;;;;;;;;;19.89;25.68;102390.45;103574;1308;59469;-81
2022/03/23 06:11:28;;;;;;;;;;;;;;;19.88;25.40;102388.33;104065;1309;61334;-84
2022/03/23 06:14:14;;;;;;;;;;;;;;;19.88;25.49;102387.48;104171;1309;60244;-86
2022/03/23 06:16:39;;;;;;;;;;;;;;;19.89;25.57;102387.56;104277;1308;74882;-84
2022/03/23 06:19:05;;;;;;;;;;;;;;;19.91;25.55;102382.86;104368;1308;61401;-83
2022/03/23 06:21:30;;;;;;;;;;;;;;;19.90;25.49;102381.26;104097;1311;61375;-83
2022/03/23 06:23:56;;;;;;;;;;;;;;;19.93;25.32;102383.86;104281;1308;61268;-84
2022/03/23 06:26:22;;;;;;;;;;;;;;;19.97;25.44;102384.77;104323;1308;62002;-85
2022/03/23 06:28:47;;;;;;;;;;;;;;;20.00;25.35;102378.20;104263;1308;73999;-84
2022/03/23 06:31:13;;;;;;;;;;;;;;;20.03;25.38;102376.12;104202;1309;61324;-85
2022/03/23 06:33:38;;;;;;;;;;;;;;;20.06;25.32;102376.34;104193;1311;61141;-83
2022/03/23 06:36:05;;;;;;;;;;;;;;;20.07;25.21;102375.77;104350;1307;59830;-81
2022/03/23 06:38:31;;;;;;;;;;;;;;;20.07;25.29;102379.88;104469;1306;59459;-83
2022/03/23 06:40:56;;;;;;;;;;;;;;;19.99;25.23;102378.42;104461;1306;59934;-82
2022/03/23 06:43:23;;;;;;;;;;;;;;;19.90;25.28;102383.40;104467;1306;61322;-83
2022/03/23 06:45:48;;;;;;;;;;;;;;;19.79;25.24;102382.60;103644;1306;1024055;-83
2022/03/23 06:48:14;;;;;;;;;;;;;;;19.76;25.29;102384.30;104490;1304;61319;-83
2022/03/23 06:50:40;;;;;;;;;;;;;;;19.76;25.28;102383.98;104439;1306;61274;-83
2022/03/23 06:53:05;;;;;;;;;;;;;;;19.72;25.22;102383.94;104508;1305;60056;-83
2022/03/23 06:55:31;;;;;;;;;;;;;;;19.64;25.14;102378.56;103996;1306;63357;-81
2022/03/23 06:57:56;;;;;;;;;;;;;;;19.58;25.06;102382.18;103781;1305;63675;-82
2022/03/23 07:00:22;;;;;;;;;;;;;;;19.46;25.00;102381.25;104312;1305;61301;-80
2022/03/23 07:02:49;;;;;;;;;;;;;;;19.42;25.14;102378.88;104827;1305;60577;-83
2022/03/23 07:05:15;;;;;;;;;;;;;;;19.40;25.03;102377.17;105242;1305;59898;-81
2022/03/23 07:09:31;;;;;;;;;;;;;;;19.39;25.10;102374.38;104806;1306;61522;-84
2022/03/23 07:10:26;;;;;;;;;;;;;;;19.44;25.11;102377.39;104660;1306;71745;-84
2022/03/23 07:12:52;;;;;;;;;;;;;;;19.41;24.98;102375.88;105445;1305;59503;-84
2022/03/23 07:15:17;;;;;;;;;;;;;;;19.31;25.02;102377.55;104653;1306;61391;-84
2022/03/23 07:17:42;;;;;;;;;;;;;;;19.30;24.88;102371.34;104262;1308;61335;-83
2022/03/23 07:20:08;;;;;;;;;;;;;;;19.13;24.75;102375.55;104638;1305;61441;-84
2022/03/23 07:22:35;;;;;;;;;;;;;;;19.09;24.70;102378.37;104629;1299;73014;-86
2022/03/23 07:25:00;;;;;;;;;;;;;;;19.14;24.75;102381.05;104476;1305;60227;-85
2022/03/23 07:27:26;;;;;;;;;;;;;;;19.19;24.68;102377.45;104586;1305;59284;-85
2022/03/23 07:30:00;;;;;;;;;;;;;;;19.16;24.52;102380.77;104860;1297;61320;-86
2022/03/23 07:32:28;;;;;;;;;;;;;;;18.96;24.46;102380.64;104384;1298;102395;-79
2022/03/23 07:34:53;;;;;;;;;;;;;;;18.99;24.55;102376.23;104085;1305;75598;-80
2022/03/23 07:37:19;;;;;;;;;;;;;;;19.11;24.60;102378.14;104128;1306;61779;-81
2022/03/23 07:39:53;;;;;;;;;;;;;;;19.20;24.60;102377.04;104104;1305;61135;-81
2022/03/23 07:42:21;;;;;;;;;;;;;;;19.31;24.61;102374.13;104256;1305;73072;-81
2022/03/23 07:44:55;;;;;;;;;;;;;;;19.40;24.59;102373.97;104045;1308;75102;-79
2022/03/23 07:47:27;;;;;;;;;;;;;;;19.47;24.69;102373.17;103915;1306;61402;-81
2022/03/23 07:49:53;;;;;;;;;;;;;;;19.53;24.55;102375.44;103997;1306;61384;-80
2022/03/23 07:52:25;;;;;;;;;;;;;;;19.48;24.37;102379.23;103715;1306;59584;-80
2022/03/23 07:54:52;;;;;;;;;;;;;;;19.37;24.34;102374.25;103820;1306;75798;-79
2022/03/23 07:57:17;;;;;;;;;;;;;;;19.39;24.33;102374.36;103909;1305;61368;-79
2022/03/23 07:59:43;;;;;;;;;;;;;;;19.39;24.29;102374.89;103948;1305;61281;-81
2022/03/23 08:02:37;;;;;;;;;;;;;;;19.20;24.08;102372.07;103769;1306;61238;-81
2022/03/23 08:05:32;;;;;;;;;;;;;;;19.02;24.27;102367.36;102405;1320;74368;-83
2022/03/23 08:08:10;;;;;;;;;;;;;;;19.08;24.46;102366.64;102368;1323;63335;-80
2022/03/23 08:10:42;;;;;;;;;;;;;;;19.17;24.64;102364.14;102406;1323;61352;-80
2022/03/23 08:13:12;;;;;;;;;;;;;;;19.25;24.58;102366.70;102641;1322;72841;-79
2022/03/23 08:15:41;;;;;;;;;;;;;;;19.24;24.58;102364.77;102662;1320;75956;-81
2022/03/23 08:18:14;;;;;;;;;;;;;;;19.28;24.58;102360.86;102751;1323;61320;-78
2022/03/23 08:20:41;;;;;;;;;;;;;;;19.36;24.48;102358.60;102686;1322;62768;-80
2022/03/23 08:23:08;;;;;;;;;;;;;;;19.40;24.53;102357.16;102566;1319;72803;-80
2022/03/23 08:25:33;;;;;;;;;;;;;;;19.45;24.47;102360.56;102720;1319;61535;-79
2022/03/23 08:28:01;;;;;;;;;;;;;;;19.50;24.51;102356.23;102794;1319;61456;-80
2022/03/23 08:30:27;;;;;;;;;;;;;;;19.55;24.36;102357.98;102820;1318;61559;-81
2022/03/23 08:32:52;;;;;;;;;;;;;;;19.60;24.34;102356.22;102628;1319;63489;-80
2022/03/23 08:35:21;;;;;;;;;;;;;;;19.65;24.25;102351.40;102673;1319;61518;-84
2022/03/23 08:37:48;;;;;;;;;;;;;;;19.69;24.33;102352.84;102660;1318;61109;-80
2022/03/23 08:40:14;;;;;;;;;;;;;;;19.72;24.37;102351.09;102758;1319;61162;-80
2022/03/23 08:42:40;;;;;;;;;;;;;;;19.76;24.33;102346.63;103190;1307;74285;-80
2022/03/23 08:45:07;;;;;;;;;;;;;;;19.80;24.26;102345.42;103717;1306;61568;-82
2022/03/23 08:47:34;;;;;;;;;;;;;;;19.84;24.15;102342.60;103870;1305;61493;-80
2022/03/23 08:50:00;;;;;;;;;;;;;;;19.86;24.23;102344.10;103743;1306;61200;-80
2022/03/23 08:52:29;;;;;;;;;;;;;;;19.81;23.97;102340.56;103915;1305;61273;-80
2022/03/23 08:54:55;;;;;;;;;;;;;;;19.76;24.00;102336.09;103694;1306;74684;-79
2022/03/23 08:57:23;;;;;;;;;;;;;;;19.62;23.85;102340.77;103879;1306;61424;-81
2022/03/23 08:59:49;;;;;;;;;;;;;;;19.38;23.62;102335.86;103913;1305;61589;-80
2022/03/23 09:02:17;;;;;;;;;;;;;;;19.29;23.80;102335.13;103761;1306;72559;-80
2022/03/23 09:04:45;;;;;;;;;;;;;;;19.21;23.77;102322.96;103626;1308;61310;-79
2022/03/23 09:07:12;;;;;;;;;;;;;;;19.15;23.72;102323.88;103903;1305;61463;-80
2022/03/23 09:09:49;;;;;;;;;;;;;;;;;;;;;
2022/03/23 09:12:18;;;;;;;;;;;;;;;19.00;23.63;102312.86;104562;1305;72522;-81
2022/03/23 09:14:59;;;;;;;;;;;;;;;19.09;23.66;102314.48;103933;1307;75100;-80
2022/03/23 09:17:25;;;;;;;;;;;;;;;19.20;23.76;102312.09;104081;1305;61446;-80
2022/03/23 09:20:16;;;;;;;;;;;;;;;19.29;23.79;102307.48;103895;1306;61325;-78
2022/03/23 09:22:41;;;;;;;;;;;;;;;19.38;23.79;102301.92;103493;1312;72907;-80
2022/03/23 09:25:21;;;;;;;;;;;;;;;19.46;23.83;102301.41;103541;1313;61316;-79
2022/03/23 09:27:56;;;;;;;;;;;;;;;19.54;23.86;102300.39;103674;1311;61486;-80
2022/03/23 09:30:26;;;;;;;;;;;;;;;19.59;23.84;102303.56;103659;1311;61310;-79
2022/03/23 09:33:09;;;;;;;;;;;;;;;19.58;23.74;102299.84;103414;1311;73861;-80
2022/03/23 09:35:44;;;;;;;;;;;;;;;19.45;23.64;102294.32;103681;1311;61269;-78
2022/03/23 09:38:18;;;;;;;;;;;;;;;19.46;23.73;102295.89;103667;1311;61422;-80
2022/03/23 09:40:49;;;;;;;;;;;;;;;19.51;23.63;102287.13;103696;1312;61525;-80
2022/03/23 09:43:23;;;;;;;;;;;;;;;19.56;23.58;102288.70;103806;1311;73994;-80
2022/03/23 09:45:51;;;;;;;;;;;;;;;19.61;23.67;102289.38;103568;1311;61271;-80
2022/03/23 09:48:20;;;;;;;;;;;;;;;19.66;23.64;102286.86;103556;1313;61296;-81
2022/03/23 09:50:58;;;;;;;;;;;;;;;19.70;23.67;102282.56;103602;1311;61250;-79
2022/03/23 09:53:26;;;;;;;;;;;;;;;19.61;23.34;102274.55;103497;1311;72936;-80
2022/03/23 09:55:52;;;;;;;;;;;;;;;19.37;23.14;102269.81;103578;1311;74819;-79
2022/03/23 09:58:55;;;;;;;;;;;;;;;19.26;23.09;102265.64;103452;1311;63916;-79
2022/03/23 10:05:13;;;;;;;;;;;;;;;18.81;22.82;102261.64;103201;1311;74010;-80
2022/03/23 10:07:50;;;;;;;;;;;;;;;18.56;22.64;102256.36;103256;1311;75009;-81
2022/03/23 10:10:46;;;;;;;;;;;;;;;18.49;22.75;102258.58;103250;1312;61366;-79
2022/03/23 10:13:33;;;;;;;;;;;;;;;18.52;22.86;102251.69;102571;1319;61763;-80
2022/03/23 10:16:17;;;;;;;;;;;;;;;18.68;23.07;102252.36;102526;1320;72729;-81
2022/03/23 10:19:15;;;;;;;;;;;;;;;18.70;22.90;102246.73;102429;1319;74709;-82
2022/03/23 10:21:42;;;;;;;;;;;;;;;18.67;22.74;102247.91;102130;1323;61447;-78
2022/03/23 10:24:30;;;;;;;;;;;;;;;18.59;22.74;102239.65;102092;1323;61183;-78
2022/03/23 10:26:58;;;;;;;;;;;;;;;18.63;22.85;102234.15;101832;1329;74006;-80
2022/03/23 10:29:31;;;;;;;;;;;;;;;18.72;22.74;102235.05;102021;1329;75853;-79
2022/03/23 10:32:00;;;;;;;;;;;;;;;18.84;22.94;102226.41;101829;1329;61342;-78
2022/03/23 10:34:35;;;;;;;;;;;;;;;18.96;22.91;102227.74;102046;1329;61312;-79
2022/03/23 10:37:04;;;;;;;;;;;;;;;19.07;23.24;102227.65;101855;1329;71737;-80
2022/03/23 10:39:30;;;;;;;;;;;;;;;19.17;23.13;102219.23;102211;1323;74812;-78
2022/03/23 10:42:16;;;;;;;;;;;;;;;19.26;23.03;102219.92;102171;1325;61290;-79
2022/03/23 10:44:47;;;;;;;;;;;;;;;19.31;23.00;102210.63;102401;1324;61636;-80
2022/03/23 10:47:44;;;;;;;;;;;;;;;19.29;22.81;102204.84;102243;1324;74004;-79
2022/03/23 10:50:16;;;;;;;;;;;;;;;19.32;22.82;102204.16;101929;1326;75828;-79
2022/03/23 10:52:52;;;;;;;;;;;;;;;19.13;22.20;102193.52;102034;1324;61297;-80
2022/03/23 10:55:18;;;;;;;;;;;;;;;18.88;21.95;102191.85;103427;1322;60806;-81
2022/03/23 10:57:50;;;;;;;;;;;;;;;18.73;21.85;102193.30;103821;1317;74066;-81
2022/03/23 11:00:17;;;;;;;;;;;;;;;18.61;21.72;102187.73;104335;1316;59887;-81
2022/03/23 11:02:49;;;;;;;;;;;;;;;18.40;21.45;102184.73;104200;1316;60861;-79
2022/03/23 11:05:33;;;;;;;;;;;;;;;18.37;21.58;102178.45;104619;1311;60394;-82
2022/03/23 11:08:11;;;;;;;;;;;;;;;18.43;21.60;102172.36;104749;1312;73359;-83
2022/03/23 11:19:10;;;;;;;;;;;;;;;18.70;21.87;102151.86;103335;1313;73669;-81
2022/03/23 11:22:12;;;;;;;;;;;;;;;18.76;21.64;102144.85;103541;1311;74667;-80
2022/03/23 11:24:40;;;;;;;;;;;;;;;18.68;21.52;102141.05;104195;1316;60318;-79
2022/03/23 11:27:08;;;;;;;;;;;;;;;18.75;21.59;102137.91;104618;1311;61365;-80
2022/03/23 11:29:39;;;;;;;;;;;;;;;18.72;21.50;102134.48;103670;1311;71574;-80
2022/03/23 11:32:11;;;;;;;;;;;;;;;18.71;21.45;102132.02;103841;1312;75294;-79
2022/03/23 11:34:50;;;;;;;;;;;;;;;18.81;21.60;102124.66;103295;1311;61406;-79
2022/03/23 11:37:16;;;;;;;;;;;;;;;18.92;21.70;102116.93;103548;1309;61191;-80
2022/03/23 11:40:10;;;;;;;;;;;;;;;19.00;21.68;102117.52;103247;1311;73780;-80
2022/03/23 11:42:38;;;;;;;;;;;;;;;18.99;21.54;102112.38;103391;1311;74687;-80
2022/03/23 11:45:04;;;;;;;;;;;;;;;19.06;21.73;102099.42;103379;1311;61192;-78
2022/03/23 11:47:58;;;;;;;;;;;;;;;19.13;21.72;102092.88;103838;1317;60265;-81
2022/03/23 11:50:32;;;;;;;;;;;;;;;19.04;21.57;102096.64;102894;1317;72818;-80
2022/03/23 11:53:20;;;;;;;;;;;;;;;18.94;21.25;102085.64;102718;1317;74921;-78
2022/03/23 11:55:46;;;;;;;;;;;;;;;18.82;21.17;102086.08;104164;1317;60255;-80
2022/03/23 11:58:24;;;;;;;;;;;;;;;18.79;21.07;102075.91;103766;1317;60014;-79
2022/03/23 12:00:51;;;;;;;;;;;;;;;18.67;20.97;102075.83;102994;1313;73947;-79
2022/03/23 12:03:43;;;;;;;;;;;;;;;18.65;21.01;102077.17;103218;1311;74901;-80
2022/03/23 12:06:13;;;;;;;;;;;;;;;18.64;21.03;102067.58;103408;1311;61242;-79
2022/03/23 12:09:05;;;;;;;;;;;;;;;18.65;20.91;102066.11;104735;1311;61458;-79
2022/03/23 12:11:43;;;;;;;;;;;;;;;18.69;20.96;102070.73;102781;1319;74006;-80
2022/03/23 12:14:27;;;;;;;;;;;;;;;18.66;20.93;102064.30;102736;1319;75054;-79
2022/03/23 12:16:53;;;;;;;;;;;;;;;18.61;20.80;102057.55;102723;1319;61462;-82
2022/03/23 12:19:22;;;;;;;;;;;;;;;18.56;20.79;102054.88;102652;1320;61665;-81
2022/03/23 12:22:14;;;;;;;;;;;;;;;18.49;20.75;102045.71;102747;1319;72947;-80
2022/03/23 12:25:06;;;;;;;;;;;;;;;18.58;20.90;102046.23;102457;1320;75034;-80
2022/03/23 12:27:50;;;;;;;;;;;;;;;18.47;20.62;102045.25;103042;1319;63490;-80
2022/03/23 12:30:22;;;;;;;;;;;;;;;18.51;20.92;102040.65;102762;1319;61220;-80
2022/03/23 12:33:00;;;;;;;;;;;;;;;18.64;21.17;102036.89;102884;1319;72960;-81
2022/03/23 12:35:49;;;;;;;;;;;;;;;18.81;21.42;102036.91;103151;1319;73663;-80
2022/03/23 12:38:20;;;;;;;;;;;;;;;18.93;21.34;102034.86;102772;1319;61762;-80
2022/03/23 12:40:51;;;;;;;;;;;;;;;18.97;21.29;102026.28;102983;1319;61547;-78
2022/03/23 12:43:54;;;;;;;;;;;;;;;19.01;21.24;102028.61;102617;1319;74264;-80
2022/03/23 12:46:23;;;;;;;;;;;;;;;18.99;21.04;102023.52;102635;1320;75863;-80
2022/03/23 12:57:54;;;;;;;;;;;;;;;19.07;20.98;102012.10;103361;1311;74706;-79
2022/03/23 13:00:32;;;;;;;;;;;;;;;19.12;21.05;102011.37;103310;1311;62692;-80
2022/03/23 13:03:07;;;;;;;;;;;;;;;19.19;21.06;102007.14;103750;1306;61691;-79
2022/03/23 13:05:33;;;;;;;;;;;;;;;19.26;21.21;102002.54;103941;1305;72341;-80
2022/03/23 13:08:28;;;;;;;;;;;;;;;19.32;21.13;102001.36;103938;1307;75630;-79
2022/03/23 13:10:58;;;;;;;;;;;;;;;19.39;21.35;101994.81;104039;1304;61279;-79
2022/03/23 13:13:24;;;;;;;;;;;;;;;19.45;21.44;101990.81;103883;1307;61161;-80